createdAt,value
2019-04-04T00:01:09.183Z,12.07
2019-04-04T00:03:38.861Z,12.07
2019-04-04T00:06:08.775Z,11.73
2019-04-04T00:08:38.339Z,12.87
2019-04-04T00:11:07.927Z,11.80
2019-04-04T00:13:37.203Z,11.60
2019-04-04T00:16:06.870Z,12.23
2019-04-04T00:18:36.515Z,12.33
2019-04-04T00:21:05.714Z,12.53
2019-04-04T00:23:37.682Z,11.77
2019-04-04T00:26:08.903Z,12.13
2019-04-04T00:28:39.339Z,12.67
2019-04-04T00:31:09.291Z,12.40
2019-04-04T00:33:39.785Z,12.60
2019-04-04T00:36:09.683Z,11.57
2019-04-04T00:38:39.199Z,11.63
2019-04-04T00:41:09.037Z,10.40
2019-04-04T00:43:38.932Z,11.10
2019-04-04T00:46:08.548Z,10.90
2019-04-04T00:48:38.114Z,11.50
2019-04-04T00:51:08.548Z,12.00
2019-04-04T00:53:38.264Z,12.53
2019-04-04T00:56:29.369Z,11.43
2019-04-04T01:00:00.866Z,12.60
2019-04-04T01:02:36.971Z,12.50
2019-04-04T01:05:39.387Z,11.77
2019-04-04T01:11:08.474Z,12.47
2019-04-04T01:13:37.875Z,13.03
2019-04-04T01:16:07.351Z,12.87
2019-04-04T01:18:37.597Z,12.83
2019-04-04T01:21:07.618Z,13.63
2019-04-04T01:23:36.726Z,13.60
2019-04-04T01:26:07.200Z,13.33
2019-04-04T01:28:37.211Z,15.27
2019-04-04T01:31:08.013Z,13.70
2019-04-04T01:33:37.578Z,14.37
2019-04-04T01:36:07.259Z,14.20
2019-04-04T01:38:36.973Z,14.93
2019-04-04T01:41:06.627Z,14.60
2019-04-04T01:43:35.853Z,14.47
2019-04-04T01:46:07.820Z,14.83
2019-04-04T01:48:37.400Z,14.03
2019-04-04T01:51:07.933Z,15.53
2019-04-04T01:53:37.577Z,16.70
2019-04-04T01:56:07.455Z,15.93
2019-04-04T01:58:40.822Z,16.57
2019-04-04T02:01:08.861Z,15.97
2019-04-04T02:03:38.522Z,15.80
2019-04-04T02:06:08.002Z,15.80
2019-04-04T02:08:37.942Z,16.27
2019-04-04T02:11:07.554Z,15.53
2019-04-04T02:13:40.854Z,15.53
2019-04-04T02:16:10.936Z,15.17
2019-04-04T02:18:40.505Z,16.10
2019-04-04T02:21:10.666Z,16.20
2019-04-04T02:23:40.506Z,17.17
2019-04-04T02:26:10.090Z,15.03
2019-04-04T02:28:40.694Z,15.37
2019-04-04T02:31:10.524Z,16.70
2019-04-04T02:33:40.152Z,15.77
2019-04-04T02:36:09.812Z,17.17
2019-04-04T02:38:39.321Z,16.27
2019-04-04T02:41:08.753Z,17.17
2019-04-04T02:43:38.307Z,17.03
2019-04-04T02:46:11.056Z,17.43
2019-04-04T02:48:40.117Z,16.90
2019-04-04T02:51:09.671Z,17.37
2019-04-04T02:53:39.270Z,18.20
2019-04-04T02:56:08.566Z,17.30
2019-04-04T02:58:37.924Z,18.20
2019-04-04T03:01:07.997Z,18.20
2019-04-04T03:03:41.136Z,18.43
2019-04-04T03:06:08.764Z,18.10
2019-04-04T03:08:38.705Z,18.00
2019-04-04T03:11:08.552Z,19.13
2019-04-04T03:13:38.033Z,18.23
2019-04-04T03:16:07.721Z,18.07
2019-04-04T03:18:38.004Z,17.67
2019-04-04T03:21:07.460Z,16.70
2019-04-04T03:23:37.624Z,16.70
2019-04-04T03:26:07.685Z,19.07
2019-04-04T03:28:36.907Z,20.27
2019-04-04T03:31:06.085Z,20.50
2019-04-04T03:33:35.471Z,22.10
2019-04-04T03:36:04.911Z,20.30
2019-04-04T03:38:34.532Z,20.10
2019-04-04T03:41:06.769Z,18.47
2019-04-04T03:43:36.247Z,19.50
2019-04-04T03:46:05.771Z,17.77
2019-04-04T03:48:35.393Z,18.10
2019-04-04T03:51:05.227Z,18.77
2019-04-04T03:53:35.056Z,17.73
2019-04-04T03:59:00.099Z,16.87
2019-04-04T04:01:28.909Z,18.73
2019-04-04T04:03:58.169Z,18.83
2019-04-04T04:06:27.620Z,18.43
2019-04-04T04:08:57.026Z,15.93
2019-04-04T04:11:26.291Z,15.87
2019-04-04T04:13:56.062Z,15.67
2019-04-04T04:16:25.445Z,16.57
2019-04-04T04:18:55.464Z,16.63
2019-04-04T04:21:25.763Z,19.57
2019-04-04T04:23:56.925Z,19.13
2019-04-04T04:26:26.529Z,21.20
2019-04-04T04:28:56.019Z,18.17
2019-04-04T04:31:25.413Z,19.77
2019-04-04T04:33:54.718Z,23.30
2019-04-04T04:36:24.314Z,21.03
2019-04-04T04:38:58.885Z,19.60
2019-04-04T04:41:24.971Z,20.67
2019-04-04T04:43:54.444Z,23.87
2019-04-04T04:46:23.772Z,21.97
2019-04-04T04:48:53.375Z,21.10
2019-04-04T04:51:22.591Z,20.57
2019-04-04T04:53:51.941Z,19.57
2019-04-04T04:56:21.664Z,18.77
2019-04-04T04:58:50.975Z,18.67
2019-04-04T05:01:20.411Z,17.63
2019-04-04T05:03:50.834Z,19.23
2019-04-04T05:06:20.537Z,21.33
2019-04-04T05:08:49.876Z,19.97
2019-04-04T05:11:20.702Z,18.97
2019-04-04T05:13:52.542Z,17.80
2019-04-04T05:16:22.857Z,19.40
2019-04-04T05:18:55.123Z,18.63
2019-04-04T05:21:27.368Z,19.67
2019-04-04T05:23:56.181Z,23.30
2019-04-04T05:26:25.395Z,22.37
2019-04-04T05:28:56.911Z,21.83
2019-04-04T05:31:25.993Z,23.67
2019-04-04T05:33:55.004Z,22.93
2019-04-04T05:36:24.391Z,22.57
2019-04-04T05:38:54.196Z,21.67
2019-04-04T05:41:27.055Z,22.33
2019-04-04T05:43:54.485Z,21.57
2019-04-04T05:46:24.055Z,21.27
2019-04-04T05:48:53.238Z,22.10
2019-04-04T05:51:22.534Z,20.43
2019-04-04T05:53:51.643Z,22.97
2019-04-04T05:56:24.213Z,21.73
2019-04-04T05:58:54.018Z,22.23
2019-04-04T06:01:23.525Z,20.37
2019-04-04T06:03:53.533Z,20.90
2019-04-04T06:06:23.074Z,19.93
2019-04-04T06:08:52.582Z,20.13
2019-04-04T06:11:22.193Z,20.90
2019-04-04T06:13:51.412Z,20.10
2019-04-04T06:16:20.836Z,18.97
2019-04-04T06:18:50.774Z,19.83
2019-04-04T06:21:20.205Z,19.57
2019-04-04T06:23:50.394Z,18.77
2019-04-04T06:26:19.617Z,19.43
2019-04-04T06:28:49.004Z,17.70
2019-04-04T06:31:18.849Z,18.30
2019-04-04T06:33:47.873Z,18.93
2019-04-04T06:36:18.269Z,19.77
2019-04-04T06:38:49.768Z,19.73
2019-04-04T06:41:19.488Z,19.57
2019-04-04T06:43:49.032Z,19.37
2019-04-04T06:46:21.115Z,20.23
2019-04-04T06:48:49.310Z,20.47
2019-04-04T06:51:19.168Z,20.63
2019-04-04T06:53:48.751Z,19.97
2019-04-04T06:56:19.686Z,20.77
2019-04-04T06:58:48.885Z,20.80
2019-04-04T07:01:20.984Z,22.30
2019-04-04T07:03:49.004Z,21.00
2019-04-04T07:06:18.238Z,21.90
2019-04-04T07:08:47.875Z,21.47
2019-04-04T07:11:21.564Z,21.37
2019-04-04T07:13:49.275Z,20.80
2019-04-04T07:16:18.636Z,19.17
2019-04-04T07:18:50.582Z,21.17
2019-04-04T07:21:20.631Z,19.53
2019-04-04T07:23:50.441Z,21.37
2019-04-04T07:26:19.771Z,20.93
2019-04-04T07:28:51.896Z,21.83
2019-04-04T07:31:23.115Z,21.33
2019-04-04T07:33:52.874Z,19.97
2019-04-04T07:36:21.981Z,21.43
2019-04-04T07:38:51.376Z,20.23
2019-04-04T07:41:20.767Z,21.33
2019-04-04T07:43:51.620Z,20.70
2019-04-04T07:46:21.244Z,20.40
2019-04-04T07:48:52.207Z,20.77
2019-04-04T07:51:21.573Z,20.27
2019-04-04T07:53:51.017Z,19.20
2019-04-04T07:56:20.191Z,19.50
2019-04-04T07:58:49.672Z,18.67
2019-04-04T08:01:18.960Z,17.20
2019-04-04T08:03:48.811Z,16.90
2019-04-04T08:06:17.985Z,15.77
2019-04-04T08:08:47.229Z,17.37
2019-04-04T08:11:16.756Z,16.60
2019-04-04T08:13:46.240Z,15.13
2019-04-04T08:16:15.784Z,16.43
2019-04-04T08:18:45.820Z,16.97
2019-04-04T08:21:15.599Z,14.33
2019-04-04T08:23:45.235Z,15.27
2019-04-04T08:26:14.543Z,14.73
2019-04-04T08:28:43.809Z,15.03
2019-04-04T08:31:13.306Z,15.30
2019-04-04T08:33:42.808Z,14.43
2019-04-04T08:36:15.219Z,12.80
2019-04-04T08:38:44.582Z,12.70
2019-04-04T08:41:13.985Z,12.47
2019-04-04T08:43:43.655Z,14.77
2019-04-04T08:46:15.814Z,14.07
2019-04-04T08:48:45.666Z,12.73
2019-04-04T08:51:14.563Z,12.23
2019-04-04T08:53:45.305Z,15.93
2019-04-04T08:56:15.021Z,11.53
2019-04-04T08:58:44.196Z,14.20
2019-04-04T09:01:13.647Z,11.10
2019-04-04T09:03:46.187Z,10.33
2019-04-04T09:06:15.409Z,11.60
2019-04-04T09:08:44.882Z,10.17
2019-04-04T09:11:14.195Z,11.07
2019-04-04T09:13:43.990Z,10.63
2019-04-04T09:16:13.633Z,9.17
2019-04-04T09:18:43.201Z,9.53
2019-04-04T09:21:15.200Z,10.43
2019-04-04T09:23:44.426Z,10.60
2019-04-04T09:26:14.169Z,8.37
2019-04-04T09:28:43.747Z,9.73
2019-04-04T09:31:13.181Z,9.80
2019-04-04T09:33:42.890Z,10.50
2019-04-04T09:36:14.150Z,11.10
2019-04-04T09:38:43.239Z,10.67
2019-04-04T09:41:13.592Z,10.37
2019-04-04T09:43:43.186Z,9.73
2019-04-04T09:46:12.754Z,9.97
2019-04-04T09:48:44.446Z,10.03
2019-04-04T09:51:14.032Z,9.93
2019-04-04T09:53:52.787Z,9.30
2019-04-04T09:56:14.442Z,10.33
2019-04-04T09:58:43.765Z,10.40
2019-04-04T10:01:13.197Z,10.43
2019-04-04T10:03:43.078Z,11.13
2019-04-04T10:06:13.547Z,12.20
2019-04-04T10:08:44.645Z,17.80
2019-04-04T10:11:16.506Z,14.27
2019-04-04T10:13:45.680Z,13.67
2019-04-04T10:16:18.294Z,12.27
2019-04-04T10:18:47.903Z,11.43
2019-04-04T10:21:17.320Z,10.60
2019-04-04T10:23:46.748Z,10.73
2019-04-04T10:26:16.002Z,12.37
2019-04-04T10:28:45.179Z,11.80
2019-04-04T10:31:18.072Z,11.57
2019-04-04T10:33:47.285Z,12.13
2019-04-04T10:36:16.676Z,13.53
2019-04-04T10:38:45.860Z,13.10
2019-04-04T10:41:15.421Z,11.83
2019-04-04T10:43:45.118Z,11.93
2019-04-04T10:46:14.771Z,13.00
2019-04-04T10:48:44.729Z,11.90
2019-04-04T10:51:17.393Z,11.97
2019-04-04T10:53:46.976Z,12.90
2019-04-04T10:56:16.235Z,12.90
2019-04-04T10:58:45.571Z,11.60
2019-04-04T11:01:14.771Z,12.97
2019-04-04T11:03:43.960Z,12.70
2019-04-04T11:06:13.066Z,13.17
2019-04-04T11:08:42.059Z,12.50
2019-04-04T11:11:11.580Z,12.20
2019-04-04T11:13:40.991Z,12.20
2019-04-04T11:16:10.528Z,11.90
2019-04-04T11:18:39.740Z,12.37
2019-04-04T11:21:09.064Z,13.23
2019-04-04T11:23:38.558Z,12.07
2019-04-04T11:26:07.970Z,12.83
2019-04-04T11:28:37.320Z,17.40
2019-04-04T11:31:06.871Z,14.03
2019-04-04T11:33:35.968Z,13.70
2019-04-04T11:36:05.779Z,14.97
2019-04-04T11:38:35.479Z,24.03
2019-04-04T11:41:04.814Z,27.10
2019-04-04T11:43:33.964Z,15.47
2019-04-04T11:46:03.479Z,14.33
2019-04-04T11:48:32.879Z,16.90
2019-04-04T11:51:02.784Z,14.77
2019-04-04T11:53:32.269Z,14.33
2019-04-04T11:56:01.710Z,15.63
2019-04-04T11:58:31.343Z,14.97
2019-04-04T12:01:02.372Z,17.20
2019-04-04T12:03:31.784Z,18.10
2019-04-04T12:06:01.057Z,14.27
2019-04-04T12:08:30.576Z,15.03
2019-04-04T12:11:00.178Z,15.67
2019-04-04T12:13:30.009Z,14.93
2019-04-04T12:15:59.154Z,16.13
2019-04-04T12:18:29.756Z,16.93
2019-04-04T12:20:59.175Z,16.10
2019-04-04T12:23:28.507Z,15.33
2019-04-04T12:25:58.013Z,15.17
2019-04-04T12:28:27.309Z,14.33
2019-04-04T12:30:56.497Z,14.93
2019-04-04T12:33:26.004Z,14.43
2019-04-04T12:35:55.431Z,13.77
2019-04-04T12:38:27.320Z,15.30
2019-04-04T12:40:56.564Z,14.83
2019-04-04T12:43:26.084Z,15.47
2019-04-04T12:45:55.663Z,15.30
2019-04-04T12:48:25.340Z,15.30
2019-04-04T12:50:54.472Z,14.97
2019-04-04T12:53:24.485Z,15.57
2019-04-04T12:55:54.294Z,13.97
2019-04-04T12:58:25.779Z,14.67
2019-04-04T13:00:55.260Z,20.33
2019-04-04T13:03:24.785Z,18.57
2019-04-04T13:05:54.672Z,18.73
2019-04-04T13:08:24.662Z,18.00
2019-04-04T13:10:54.231Z,17.47
2019-04-04T13:13:26.464Z,16.63
2019-04-04T13:15:55.553Z,17.63
2019-04-04T13:18:24.992Z,20.27
2019-04-04T13:20:54.475Z,20.47
2019-04-04T13:23:24.280Z,17.37
2019-04-04T13:25:53.674Z,18.97
2019-04-04T13:28:23.377Z,18.70
2019-04-04T13:30:54.479Z,18.93
2019-04-04T13:33:24.197Z,18.67
2019-04-04T13:35:53.664Z,18.47
2019-04-04T13:38:23.447Z,20.17
2019-04-04T13:40:55.038Z,19.87
2019-04-04T13:43:24.551Z,20.27
2019-04-04T13:45:53.923Z,18.63
2019-04-04T13:48:24.052Z,20.27
2019-04-04T13:50:54.005Z,18.47
2019-04-04T13:53:25.560Z,21.77
2019-04-04T13:55:54.439Z,21.10
2019-04-04T13:58:23.862Z,21.73
2019-04-04T14:00:53.704Z,19.70
2019-04-04T14:03:23.138Z,20.23
2019-04-04T14:05:55.718Z,18.83
2019-04-04T14:08:25.194Z,20.10
2019-04-04T14:10:58.370Z,19.60
2019-04-04T14:13:26.235Z,21.20
2019-04-04T14:15:55.944Z,21.33
2019-04-04T14:18:39.152Z,46.23
2019-04-04T14:21:03.910Z,18.97
2019-04-04T14:23:29.010Z,20.20
2019-04-04T14:26:00.054Z,33.67
2019-04-04T14:28:29.445Z,26.47
2019-04-04T14:30:59.071Z,25.40
2019-04-04T14:33:28.426Z,26.17
2019-04-04T14:35:57.481Z,30.80
2019-04-04T14:38:26.926Z,25.67
2019-04-04T14:40:55.997Z,25.17
2019-04-04T14:43:25.291Z,24.57
2019-04-04T14:45:54.615Z,21.73
2019-04-04T14:48:24.133Z,23.60
2019-04-04T14:50:53.902Z,24.13
2019-04-04T14:53:24.126Z,24.80
2019-04-04T14:55:54.751Z,24.30
2019-04-04T14:58:24.257Z,23.97
2019-04-04T15:00:54.134Z,24.50
2019-04-04T15:03:24.022Z,25.87
2019-04-04T15:05:53.781Z,25.67
2019-04-04T15:08:26.867Z,25.70
2019-04-04T15:10:56.181Z,27.10
2019-04-04T15:13:25.578Z,28.07
2019-04-04T15:16:31.423Z,30.23
2019-04-04T15:19:00.837Z,25.47
2019-04-04T15:21:30.452Z,26.93
2019-04-04T15:24:00.058Z,27.47
2019-04-04T15:26:29.261Z,25.57
2019-04-04T15:28:58.480Z,27.20
2019-04-04T15:31:29.588Z,27.70
2019-04-04T15:33:58.885Z,27.60
2019-04-04T15:36:28.703Z,36.13
2019-04-04T15:38:58.317Z,36.23
2019-04-04T15:41:36.832Z,32.57
2019-04-04T15:43:59.074Z,27.53
2019-04-04T15:46:28.358Z,30.00
2019-04-04T15:51:41.253Z,27.67
2019-04-04T15:54:10.568Z,29.73
2019-04-04T15:56:40.220Z,29.73
2019-04-04T15:59:09.697Z,29.47
2019-04-04T16:01:39.214Z,29.40
2019-04-04T16:04:08.517Z,34.30
2019-04-04T16:06:38.714Z,28.27
2019-04-04T16:09:08.588Z,30.83
2019-04-04T16:11:48.815Z,30.90
2019-04-04T16:14:09.366Z,35.50
2019-04-04T16:16:38.662Z,34.93
2019-04-04T16:19:08.191Z,32.37
2019-04-04T16:21:37.475Z,31.37
2019-04-04T16:24:07.297Z,32.80
2019-04-04T16:26:37.013Z,32.00
2019-04-04T16:29:06.725Z,32.30
2019-04-04T16:31:35.945Z,34.20
2019-04-04T16:34:05.660Z,34.70
2019-04-04T16:36:35.319Z,36.30
2019-04-04T16:39:07.520Z,36.90
2019-04-04T16:41:36.896Z,36.17
2019-04-04T16:44:06.291Z,34.27
2019-04-04T16:46:35.476Z,36.67
2019-04-04T16:49:07.660Z,34.57
2019-04-04T16:51:36.843Z,35.30
2019-04-04T16:54:06.149Z,34.33
2019-04-04T16:56:38.389Z,35.47
2019-04-04T16:59:07.924Z,35.37
2019-04-04T17:01:37.112Z,35.20
2019-04-04T17:04:06.429Z,34.63
2019-04-04T17:06:35.580Z,34.43
2019-04-04T17:09:06.695Z,37.27
2019-04-04T17:11:35.955Z,37.57
2019-04-04T17:14:06.171Z,37.73
2019-04-04T17:16:35.584Z,38.90
2019-04-04T17:19:08.466Z,39.70
2019-04-04T17:21:37.804Z,37.10
2019-04-04T17:24:07.470Z,39.10
2019-04-04T17:26:36.560Z,38.53
2019-04-04T17:29:06.208Z,41.60
2019-04-04T17:31:38.155Z,40.50
2019-04-04T17:34:07.640Z,39.40
2019-04-04T17:36:37.040Z,37.27
2019-04-04T17:39:07.657Z,38.87
2019-04-04T17:41:37.167Z,36.23
2019-04-04T17:44:06.656Z,36.93
2019-04-04T17:46:36.783Z,35.47
2019-04-04T17:49:06.646Z,34.33
2019-04-04T17:51:36.609Z,35.40
2019-04-04T17:54:06.240Z,36.03
2019-04-04T17:56:36.563Z,33.77
2019-04-04T17:59:06.371Z,34.07
2019-04-04T18:01:36.550Z,32.17
2019-04-04T18:04:05.959Z,33.17
2019-04-04T18:06:35.606Z,31.97
2019-04-04T18:09:08.407Z,33.20
2019-04-04T18:11:37.973Z,31.97
2019-04-04T18:14:07.595Z,31.77
2019-04-04T18:16:36.786Z,32.13
2019-04-04T18:19:06.960Z,32.13
2019-04-04T18:21:36.713Z,31.13
2019-04-04T18:24:08.267Z,31.93
2019-04-04T18:26:37.634Z,31.13
2019-04-04T18:29:07.064Z,31.00
2019-04-04T18:31:36.470Z,34.00
2019-04-04T18:34:08.107Z,31.13
2019-04-04T18:36:38.195Z,32.80
2019-04-04T18:39:08.108Z,31.87
2019-04-04T18:41:38.087Z,32.40
2019-04-04T18:44:07.496Z,32.87
2019-04-04T18:46:36.953Z,31.90
2019-04-04T18:49:06.775Z,31.20
2019-04-04T18:51:37.737Z,31.77
2019-04-04T18:54:10.570Z,30.97
2019-04-04T18:56:39.995Z,30.27
2019-04-04T18:59:10.356Z,29.73
2019-04-04T19:01:40.552Z,30.40
2019-04-04T19:04:10.036Z,27.33
2019-04-04T19:06:39.580Z,28.90
2019-04-04T19:09:15.245Z,28.17
2019-04-04T19:11:42.148Z,26.43
2019-04-04T19:14:11.804Z,26.23
2019-04-04T19:16:41.049Z,26.27
2019-04-04T19:19:10.025Z,26.90
2019-04-04T19:21:39.338Z,27.77
2019-04-04T19:24:08.863Z,26.90
2019-04-04T19:26:38.446Z,29.57
2019-04-04T19:29:07.947Z,28.07
2019-04-04T19:31:37.920Z,26.57
2019-04-04T19:34:07.051Z,29.03
2019-04-04T19:36:36.324Z,28.17
2019-04-04T19:39:08.758Z,28.60
2019-04-04T19:41:38.440Z,28.73
2019-04-04T19:44:08.253Z,29.80
2019-04-04T19:46:38.087Z,27.77
2019-04-04T19:49:07.815Z,27.80
2019-04-04T19:51:40.655Z,26.80
2019-04-04T19:54:09.856Z,28.70
2019-04-04T19:56:40.255Z,29.40
2019-04-04T19:59:10.065Z,28.53
2019-04-04T20:01:42.439Z,28.57
2019-04-04T20:04:11.856Z,28.10
2019-04-04T20:06:41.352Z,28.37
2019-04-04T20:09:10.338Z,29.10
2019-04-04T20:11:39.705Z,31.33
2019-04-04T20:14:09.155Z,27.93
2019-04-04T20:16:38.655Z,28.57
2019-04-04T20:19:07.885Z,29.17
2019-04-04T20:21:37.066Z,31.00
2019-04-04T20:24:06.561Z,32.33
2019-04-04T20:26:36.394Z,35.60
2019-04-04T20:29:06.649Z,34.13
2019-04-04T20:31:36.328Z,30.93
2019-04-04T20:34:06.399Z,28.33
2019-04-04T20:36:38.926Z,28.73
2019-04-04T20:39:08.625Z,33.03
2019-04-04T20:41:37.977Z,28.60
2019-04-04T20:44:08.729Z,32.60
2019-04-04T20:46:38.127Z,29.80
2019-04-04T20:49:07.738Z,29.27
2019-04-04T20:51:36.987Z,29.53
2019-04-04T20:54:06.041Z,28.07
2019-04-04T20:56:35.494Z,28.97
2019-04-04T20:59:05.650Z,33.03
2019-04-04T21:01:35.271Z,32.27
2019-04-04T21:04:06.667Z,29.40
2019-04-04T21:06:36.264Z,31.10
2019-04-04T21:09:07.457Z,30.57
2019-04-04T21:11:37.435Z,29.53
2019-04-04T21:14:06.895Z,31.47
2019-04-04T21:16:36.295Z,30.93
2019-04-04T21:19:05.837Z,31.73
2019-04-04T21:21:35.686Z,30.37
2019-04-04T21:24:05.400Z,30.60
2019-04-04T21:26:34.803Z,30.00
2019-04-04T21:29:06.226Z,30.07
2019-04-04T21:31:38.909Z,28.57
2019-04-04T21:34:08.445Z,27.50
2019-04-04T21:36:37.831Z,27.33
2019-04-04T21:39:07.917Z,28.67
2019-04-04T21:41:37.450Z,25.67
2019-04-04T21:44:09.074Z,24.93
2019-04-04T21:46:38.102Z,25.43
2019-04-04T21:49:07.710Z,23.67
2019-04-04T21:51:37.620Z,23.57
2019-04-04T21:54:07.279Z,24.13
2019-04-04T21:56:36.536Z,24.33
2019-04-04T21:59:05.777Z,23.10
2019-04-04T22:01:35.339Z,22.27
2019-04-04T22:04:04.842Z,22.83
2019-04-04T22:06:34.240Z,24.17
2019-04-04T22:09:05.489Z,24.57
2019-04-04T22:11:34.894Z,24.50
2019-04-04T22:14:04.141Z,24.87
2019-04-04T22:16:33.630Z,24.20
2019-04-04T22:19:03.258Z,25.20
2019-04-04T22:21:32.669Z,26.07
2019-04-04T22:24:01.753Z,24.57
2019-04-04T22:26:31.471Z,24.50
2019-04-04T22:29:02.057Z,25.07
2019-04-04T22:31:34.133Z,26.20
2019-04-04T22:34:03.485Z,26.37
2019-04-04T22:36:33.046Z,25.70
2019-04-04T22:39:02.396Z,26.70
2019-04-04T22:41:34.669Z,25.93
2019-04-04T22:44:04.125Z,26.27
2019-04-04T22:46:33.350Z,26.97
2019-04-04T22:49:02.731Z,28.80
2019-04-04T22:51:32.580Z,27.37
2019-04-04T22:54:05.406Z,25.77
2019-04-04T22:56:34.830Z,28.40
2019-04-04T22:59:04.182Z,27.33
2019-04-04T23:01:33.646Z,26.60
2019-04-04T23:04:03.172Z,26.90
2019-04-04T23:06:32.670Z,25.27
2019-04-04T23:09:05.873Z,26.53
2019-04-04T23:11:35.485Z,27.57
2019-04-04T23:14:04.720Z,26.70
2019-04-04T23:16:35.407Z,27.03
2019-04-04T23:19:04.690Z,26.73
2019-04-04T23:21:34.336Z,28.20
2019-04-04T23:24:04.051Z,27.30
2019-04-04T23:26:33.501Z,27.07
2019-04-04T23:29:02.844Z,27.53
2019-04-04T23:31:35.502Z,27.67
2019-04-04T23:34:06.021Z,26.90
2019-04-04T23:36:35.696Z,26.73
2019-04-04T23:39:06.978Z,27.63
2019-04-04T23:41:36.168Z,25.73
2019-04-04T23:44:06.189Z,26.83
2019-04-04T23:46:36.200Z,26.10
2019-04-04T23:49:05.920Z,25.97
2019-04-04T23:51:34.898Z,27.17
2019-04-04T23:54:04.406Z,27.73
2019-04-04T23:56:33.804Z,27.17
2019-04-04T23:59:03.657Z,27.17
